sensor_id;sensor_type;location;lat;lon;timestamp;P1;durP1;ratioP1;P2;durP2;ratioP2
23567;SDS011;11962;50.838;4.430;2023-04-29T00:02:12;46.13;;;26.13;;
23567;SDS011;11962;50.838;4.430;2023-04-29T00:04:38;46.95;;;26.17;;
23567;SDS011;11962;50.838;4.430;2023-04-29T00:07:03;52.63;;;26.63;;
23567;SDS011;11962;50.838;4.430;2023-04-29T00:09:29;48.38;;;26.67;;
23567;SDS011;11962;50.838;4.430;2023-04-29T00:11:55;51.67;;;26.73;;
23567;SDS011;11962;50.838;4.430;2023-04-29T00:14:21;55.47;;;28.88;;
23567;SDS011;11962;50.838;4.430;2023-04-29T00:16:47;54.05;;;28.10;;
23567;SDS011;11962;50.838;4.430;2023-04-29T00:19:12;59.50;;;29.83;;
23567;SDS011;11962;50.838;4.430;2023-04-29T00:21:38;56.28;;;29.45;;
23567;SDS011;11962;50.838;4.430;2023-04-29T00:24:04;52.47;;;28.50;;
23567;SDS011;11962;50.838;4.430;2023-04-29T00:26:30;52.25;;;26.98;;
23567;SDS011;11962;50.838;4.430;2023-04-29T00:28:56;49.28;;;26.83;;
23567;SDS011;11962;50.838;4.430;2023-04-29T00:31:21;46.45;;;24.83;;
23567;SDS011;11962;50.838;4.430;2023-04-29T00:33:47;44.30;;;24.55;;
23567;SDS011;11962;50.838;4.430;2023-04-29T00:36:13;40.10;;;23.23;;
23567;SDS011;11962;50.838;4.430;2023-04-29T00:38:39;40.03;;;22.63;;
23567;SDS011;11962;50.838;4.430;2023-04-29T00:41:05;39.13;;;22.33;;
23567;SDS011;11962;50.838;4.430;2023-04-29T00:43:30;38.42;;;22.25;;
23567;SDS011;11962;50.838;4.430;2023-04-29T00:45:56;41.88;;;23.15;;
23567;SDS011;11962;50.838;4.430;2023-04-29T00:48:22;39.25;;;22.75;;
23567;SDS011;11962;50.838;4.430;2023-04-29T00:50:48;41.10;;;23.15;;
23567;SDS011;11962;50.838;4.430;2023-04-29T00:53:15;39.60;;;23.30;;
23567;SDS011;11962;50.838;4.430;2023-04-29T00:55:41;46.33;;;24.65;;
23567;SDS011;11962;50.838;4.430;2023-04-29T00:58:09;49.00;;;26.45;;
23567;SDS011;11962;50.838;4.430;2023-04-29T01:00:35;47.70;;;24.30;;
23567;SDS011;11962;50.838;4.430;2023-04-29T01:03:03;50.20;;;25.77;;
23567;SDS011;11962;50.838;4.430;2023-04-29T01:05:29;44.88;;;24.05;;
23567;SDS011;11962;50.838;4.430;2023-04-29T01:10:53;50.03;;;24.70;;
23567;SDS011;11962;50.838;4.430;2023-04-29T01:16:10;46.35;;;24.48;;
23567;SDS011;11962;50.838;4.430;2023-04-29T01:18:42;43.25;;;23.83;;
23567;SDS011;11962;50.838;4.430;2023-04-29T01:21:13;45.30;;;24.48;;
23567;SDS011;11962;50.838;4.430;2023-04-29T01:23:39;45.17;;;24.17;;
23567;SDS011;11962;50.838;4.430;2023-04-29T01:26:05;39.92;;;23.33;;
23567;SDS011;11962;50.838;4.430;2023-04-29T01:31:29;45.78;;;23.42;;
23567;SDS011;11962;50.838;4.430;2023-04-29T01:34:13;44.35;;;22.38;;
23567;SDS011;11962;50.838;4.430;2023-04-29T01:39:43;41.60;;;23.08;;
23567;SDS011;11962;50.838;4.430;2023-04-29T01:42:38;43.45;;;23.60;;
23567;SDS011;11962;50.838;4.430;2023-04-29T01:45:07;41.03;;;22.55;;
23567;SDS011;11962;50.838;4.430;2023-04-29T01:47:36;45.30;;;24.23;;
23567;SDS011;11962;50.838;4.430;2023-04-29T01:50:03;48.58;;;24.13;;
23567;SDS011;11962;50.838;4.430;2023-04-29T01:52:29;45.22;;;24.15;;
23567;SDS011;11962;50.838;4.430;2023-04-29T01:54:55;55.38;;;26.45;;
23567;SDS011;11962;50.838;4.430;2023-04-29T01:57:21;50.83;;;26.73;;
23567;SDS011;11962;50.838;4.430;2023-04-29T01:59:47;48.85;;;27.58;;
23567;SDS011;11962;50.838;4.430;2023-04-29T02:02:12;54.88;;;27.95;;
23567;SDS011;11962;50.838;4.430;2023-04-29T02:04:39;57.55;;;28.38;;
23567;SDS011;11962;50.838;4.430;2023-04-29T02:07:05;58.88;;;28.55;;
23567;SDS011;11962;50.838;4.430;2023-04-29T02:09:31;54.80;;;28.38;;
23567;SDS011;11962;50.838;4.430;2023-04-29T02:11:57;55.08;;;28.60;;
23567;SDS011;11962;50.838;4.430;2023-04-29T02:14:22;56.70;;;28.52;;
23567;SDS011;11962;50.838;4.430;2023-04-29T02:16:48;47.75;;;26.85;;
23567;SDS011;11962;50.838;4.430;2023-04-29T02:19:14;48.55;;;26.95;;
23567;SDS011;11962;50.838;4.430;2023-04-29T02:21:40;49.28;;;26.13;;
23567;SDS011;11962;50.838;4.430;2023-04-29T02:24:06;44.20;;;25.20;;
23567;SDS011;11962;50.838;4.430;2023-04-29T02:26:31;43.80;;;25.75;;
23567;SDS011;11962;50.838;4.430;2023-04-29T02:28:58;44.55;;;24.35;;
23567;SDS011;11962;50.838;4.430;2023-04-29T02:31:24;36.17;;;22.33;;
23567;SDS011;11962;50.838;4.430;2023-04-29T02:33:50;36.83;;;21.80;;
23567;SDS011;11962;50.838;4.430;2023-04-29T02:36:15;41.53;;;21.92;;
23567;SDS011;11962;50.838;4.430;2023-04-29T02:38:42;36.78;;;22.33;;
23567;SDS011;11962;50.838;4.430;2023-04-29T02:41:08;39.92;;;21.35;;
23567;SDS011;11962;50.838;4.430;2023-04-29T02:43:34;35.05;;;20.42;;
23567;SDS011;11962;50.838;4.430;2023-04-29T02:45:59;32.58;;;19.38;;
23567;SDS011;11962;50.838;4.430;2023-04-29T02:48:25;36.65;;;19.52;;
23567;SDS011;11962;50.838;4.430;2023-04-29T02:50:51;32.03;;;18.45;;
23567;SDS011;11962;50.838;4.430;2023-04-29T02:53:17;27.98;;;18.23;;
23567;SDS011;11962;50.838;4.430;2023-04-29T02:55:43;34.42;;;18.50;;
23567;SDS011;11962;50.838;4.430;2023-04-29T02:58:09;28.23;;;18.27;;
23567;SDS011;11962;50.838;4.430;2023-04-29T03:00:34;31.25;;;19.80;;
23567;SDS011;11962;50.838;4.430;2023-04-29T03:03:00;29.92;;;18.65;;
23567;SDS011;11962;50.838;4.430;2023-04-29T03:05:26;27.30;;;16.95;;
23567;SDS011;11962;50.838;4.430;2023-04-29T03:07:52;28.20;;;18.90;;
23567;SDS011;11962;50.838;4.430;2023-04-29T03:10:17;25.85;;;16.88;;
23567;SDS011;11962;50.838;4.430;2023-04-29T03:12:43;22.45;;;14.68;;
23567;SDS011;11962;50.838;4.430;2023-04-29T03:15:09;21.50;;;13.40;;
23567;SDS011;11962;50.838;4.430;2023-04-29T03:17:35;23.08;;;14.43;;
23567;SDS011;11962;50.838;4.430;2023-04-29T03:20:01;23.50;;;15.05;;
23567;SDS011;11962;50.838;4.430;2023-04-29T03:22:28;21.95;;;14.95;;
23567;SDS011;11962;50.838;4.430;2023-04-29T03:24:53;23.80;;;15.95;;
23567;SDS011;11962;50.838;4.430;2023-04-29T03:27:19;27.17;;;17.02;;
23567;SDS011;11962;50.838;4.430;2023-04-29T03:29:45;29.45;;;17.20;;
23567;SDS011;11962;50.838;4.430;2023-04-29T03:32:11;24.95;;;16.88;;
23567;SDS011;11962;50.838;4.430;2023-04-29T03:34:36;27.25;;;17.60;;
23567;SDS011;11962;50.838;4.430;2023-04-29T03:37:02;29.63;;;16.98;;
23567;SDS011;11962;50.838;4.430;2023-04-29T03:39:28;24.15;;;14.70;;
23567;SDS011;11962;50.838;4.430;2023-04-29T03:41:57;26.15;;;14.27;;
23567;SDS011;11962;50.838;4.430;2023-04-29T03:44:24;24.05;;;14.52;;
23567;SDS011;11962;50.838;4.430;2023-04-29T03:46:50;18.83;;;13.63;;
23567;SDS011;11962;50.838;4.430;2023-04-29T03:49:15;20.88;;;13.18;;
23567;SDS011;11962;50.838;4.430;2023-04-29T03:51:42;20.60;;;12.32;;
23567;SDS011;11962;50.838;4.430;2023-04-29T03:54:11;19.52;;;11.70;;
23567;SDS011;11962;50.838;4.430;2023-04-29T03:56:37;19.25;;;12.05;;
23567;SDS011;11962;50.838;4.430;2023-04-29T03:59:03;16.75;;;12.35;;
23567;SDS011;11962;50.838;4.430;2023-04-29T04:01:29;23.52;;;13.30;;
23567;SDS011;11962;50.838;4.430;2023-04-29T04:03:55;26.02;;;15.05;;
23567;SDS011;11962;50.838;4.430;2023-04-29T04:06:21;28.88;;;16.33;;
23567;SDS011;11962;50.838;4.430;2023-04-29T04:08:47;24.95;;;16.40;;
23567;SDS011;11962;50.838;4.430;2023-04-29T04:11:13;31.30;;;18.63;;
23567;SDS011;11962;50.838;4.430;2023-04-29T04:13:42;33.33;;;19.13;;
23567;SDS011;11962;50.838;4.430;2023-04-29T04:16:08;36.25;;;21.55;;
23567;SDS011;11962;50.838;4.430;2023-04-29T04:18:35;37.30;;;21.60;;
23567;SDS011;11962;50.838;4.430;2023-04-29T04:21:05;39.38;;;22.27;;
23567;SDS011;11962;50.838;4.430;2023-04-29T04:23:31;41.50;;;22.35;;
23567;SDS011;11962;50.838;4.430;2023-04-29T04:25:57;37.92;;;22.25;;
23567;SDS011;11962;50.838;4.430;2023-04-29T04:28:23;38.80;;;22.35;;
23567;SDS011;11962;50.838;4.430;2023-04-29T04:30:49;40.70;;;23.23;;
23567;SDS011;11962;50.838;4.430;2023-04-29T04:33:15;40.20;;;23.55;;
23567;SDS011;11962;50.838;4.430;2023-04-29T04:35:41;46.17;;;24.40;;
23567;SDS011;11962;50.838;4.430;2023-04-29T04:38:07;38.83;;;23.67;;
23567;SDS011;11962;50.838;4.430;2023-04-29T04:40:33;48.05;;;25.02;;
23567;SDS011;11962;50.838;4.430;2023-04-29T04:42:59;45.60;;;24.00;;
23567;SDS011;11962;50.838;4.430;2023-04-29T04:45:25;45.47;;;24.10;;
23567;SDS011;11962;50.838;4.430;2023-04-29T04:47:53;41.05;;;23.95;;
23567;SDS011;11962;50.838;4.430;2023-04-29T04:50:19;42.10;;;22.77;;
23567;SDS011;11962;50.838;4.430;2023-04-29T04:52:45;34.92;;;20.25;;
23567;SDS011;11962;50.838;4.430;2023-04-29T04:55:11;32.85;;;19.60;;
23567;SDS011;11962;50.838;4.430;2023-04-29T04:57:36;35.05;;;20.55;;
23567;SDS011;11962;50.838;4.430;2023-04-29T05:03:16;26.98;;;18.30;;
23567;SDS011;11962;50.838;4.430;2023-04-29T05:05:42;28.73;;;18.23;;
23567;SDS011;11962;50.838;4.430;2023-04-29T05:08:08;29.90;;;18.40;;
23567;SDS011;11962;50.838;4.430;2023-04-29T05:10:37;26.02;;;17.20;;
23567;SDS011;11962;50.838;4.430;2023-04-29T05:13:03;30.55;;;18.10;;
23567;SDS011;11962;50.838;4.430;2023-04-29T05:15:28;31.92;;;18.15;;
23567;SDS011;11962;50.838;4.430;2023-04-29T05:17:54;28.42;;;17.25;;
23567;SDS011;11962;50.838;4.430;2023-04-29T05:20:20;30.08;;;17.92;;
23567;SDS011;11962;50.838;4.430;2023-04-29T05:22:46;29.40;;;16.92;;
23567;SDS011;11962;50.838;4.430;2023-04-29T05:25:12;28.25;;;17.20;;
23567;SDS011;11962;50.838;4.430;2023-04-29T05:27:37;29.48;;;17.33;;
23567;SDS011;11962;50.838;4.430;2023-04-29T05:30:04;29.30;;;16.67;;
23567;SDS011;11962;50.838;4.430;2023-04-29T05:32:30;26.73;;;16.15;;
23567;SDS011;11962;50.838;4.430;2023-04-29T05:34:56;26.20;;;16.35;;
23567;SDS011;11962;50.838;4.430;2023-04-29T05:37:21;25.58;;;15.65;;
23567;SDS011;11962;50.838;4.430;2023-04-29T05:39:47;24.45;;;15.90;;
23567;SDS011;11962;50.838;4.430;2023-04-29T05:42:13;28.70;;;15.85;;
23567;SDS011;11962;50.838;4.430;2023-04-29T05:44:39;26.58;;;15.68;;
23567;SDS011;11962;50.838;4.430;2023-04-29T05:47:05;26.40;;;16.13;;
23567;SDS011;11962;50.838;4.430;2023-04-29T05:49:31;30.30;;;16.38;;
23567;SDS011;11962;50.838;4.430;2023-04-29T05:51:56;28.13;;;17.17;;
23567;SDS011;11962;50.838;4.430;2023-04-29T05:54:27;31.40;;;17.83;;
23567;SDS011;11962;50.838;4.430;2023-04-29T05:56:53;29.65;;;17.90;;
23567;SDS011;11962;50.838;4.430;2023-04-29T05:59:19;29.35;;;18.05;;
23567;SDS011;11962;50.838;4.430;2023-04-29T06:01:45;32.72;;;18.67;;
23567;SDS011;11962;50.838;4.430;2023-04-29T06:04:10;35.42;;;17.63;;
23567;SDS011;11962;50.838;4.430;2023-04-29T06:06:36;26.02;;;17.58;;
23567;SDS011;11962;50.838;4.430;2023-04-29T06:09:02;36.58;;;18.85;;
23567;SDS011;11962;50.838;4.430;2023-04-29T06:11:28;31.83;;;18.25;;
23567;SDS011;11962;50.838;4.430;2023-04-29T06:13:55;33.75;;;18.45;;
23567;SDS011;11962;50.838;4.430;2023-04-29T06:16:21;33.33;;;17.88;;
23567;SDS011;11962;50.838;4.430;2023-04-29T06:18:47;33.97;;;18.90;;
23567;SDS011;11962;50.838;4.430;2023-04-29T06:21:13;28.98;;;18.23;;
23567;SDS011;11962;50.838;4.430;2023-04-29T06:23:40;32.35;;;19.05;;
23567;SDS011;11962;50.838;4.430;2023-04-29T06:26:06;31.35;;;19.92;;
23567;SDS011;11962;50.838;4.430;2023-04-29T06:28:31;31.23;;;18.20;;
23567;SDS011;11962;50.838;4.430;2023-04-29T06:30:57;28.85;;;17.75;;
23567;SDS011;11962;50.838;4.430;2023-04-29T06:33:23;33.08;;;18.23;;
23567;SDS011;11962;50.838;4.430;2023-04-29T06:35:49;26.98;;;18.15;;
23567;SDS011;11962;50.838;4.430;2023-04-29T06:38:14;29.42;;;17.55;;
23567;SDS011;11962;50.838;4.430;2023-04-29T06:40:40;37.78;;;19.48;;
23567;SDS011;11962;50.838;4.430;2023-04-29T06:43:06;32.83;;;18.73;;
23567;SDS011;11962;50.838;4.430;2023-04-29T06:45:32;29.50;;;18.67;;
23567;SDS011;11962;50.838;4.430;2023-04-29T06:47:58;28.60;;;18.25;;
23567;SDS011;11962;50.838;4.430;2023-04-29T06:50:23;30.52;;;18.88;;
23567;SDS011;11962;50.838;4.430;2023-04-29T06:52:49;30.08;;;18.25;;
23567;SDS011;11962;50.838;4.430;2023-04-29T06:55:15;33.20;;;18.92;;
23567;SDS011;11962;50.838;4.430;2023-04-29T06:57:41;28.90;;;19.13;;
23567;SDS011;11962;50.838;4.430;2023-04-29T07:00:07;33.75;;;18.85;;
23567;SDS011;11962;50.838;4.430;2023-04-29T07:02:33;31.90;;;18.58;;
23567;SDS011;11962;50.838;4.430;2023-04-29T07:04:59;29.33;;;19.00;;
23567;SDS011;11962;50.838;4.430;2023-04-29T07:07:25;31.63;;;19.70;;
23567;SDS011;11962;50.838;4.430;2023-04-29T07:09:51;31.95;;;19.40;;
23567;SDS011;11962;50.838;4.430;2023-04-29T07:12:18;27.23;;;18.52;;
23567;SDS011;11962;50.838;4.430;2023-04-29T07:14:44;30.23;;;18.85;;
23567;SDS011;11962;50.838;4.430;2023-04-29T07:17:09;28.33;;;19.15;;
23567;SDS011;11962;50.838;4.430;2023-04-29T07:19:35;37.20;;;19.98;;
23567;SDS011;11962;50.838;4.430;2023-04-29T07:22:01;32.85;;;19.48;;
23567;SDS011;11962;50.838;4.430;2023-04-29T07:24:28;30.83;;;20.10;;
23567;SDS011;11962;50.838;4.430;2023-04-29T07:26:53;36.25;;;20.70;;
23567;SDS011;11962;50.838;4.430;2023-04-29T07:29:19;28.30;;;18.38;;
23567;SDS011;11962;50.838;4.430;2023-04-29T07:31:45;34.15;;;20.58;;
23567;SDS011;11962;50.838;4.430;2023-04-29T07:34:11;31.30;;;21.05;;
23567;SDS011;11962;50.838;4.430;2023-04-29T07:36:37;33.03;;;19.83;;
23567;SDS011;11962;50.838;4.430;2023-04-29T07:39:03;33.22;;;20.90;;
23567;SDS011;11962;50.838;4.430;2023-04-29T07:41:29;37.80;;;21.98;;
23567;SDS011;11962;50.838;4.430;2023-04-29T07:43:55;39.90;;;21.63;;
23567;SDS011;11962;50.838;4.430;2023-04-29T07:46:21;32.20;;;22.00;;
23567;SDS011;11962;50.838;4.430;2023-04-29T07:48:47;41.70;;;23.48;;
23567;SDS011;11962;50.838;4.430;2023-04-29T07:51:13;32.30;;;22.83;;
23567;SDS011;11962;50.838;4.430;2023-04-29T07:53:39;39.70;;;23.45;;
23567;SDS011;11962;50.838;4.430;2023-04-29T07:56:06;41.78;;;23.38;;
23567;SDS011;11962;50.838;4.430;2023-04-29T07:58:32;41.58;;;23.77;;
23567;SDS011;11962;50.838;4.430;2023-04-29T08:01:05;42.53;;;23.42;;
23567;SDS011;11962;50.838;4.430;2023-04-29T08:03:31;39.13;;;24.83;;
23567;SDS011;11962;50.838;4.430;2023-04-29T08:06:01;35.35;;;23.20;;
23567;SDS011;11962;50.838;4.430;2023-04-29T08:08:28;36.45;;;24.17;;
23567;SDS011;11962;50.838;4.430;2023-04-29T08:10:55;35.00;;;23.83;;
23567;SDS011;11962;50.838;4.430;2023-04-29T08:13:20;32.75;;;21.83;;
23567;SDS011;11962;50.838;4.430;2023-04-29T08:15:46;42.20;;;24.35;;
23567;SDS011;11962;50.838;4.430;2023-04-29T08:18:12;34.58;;;22.23;;
23567;SDS011;11962;50.838;4.430;2023-04-29T08:20:37;39.55;;;23.35;;
23567;SDS011;11962;50.838;4.430;2023-04-29T08:23:03;35.83;;;22.80;;
23567;SDS011;11962;50.838;4.430;2023-04-29T08:25:29;38.88;;;23.27;;
23567;SDS011;11962;50.838;4.430;2023-04-29T08:27:55;37.58;;;22.25;;
23567;SDS011;11962;50.838;4.430;2023-04-29T08:30:21;33.30;;;22.05;;
23567;SDS011;11962;50.838;4.430;2023-04-29T08:32:46;36.78;;;20.98;;
23567;SDS011;11962;50.838;4.430;2023-04-29T08:35:12;35.90;;;21.30;;
23567;SDS011;11962;50.838;4.430;2023-04-29T08:37:38;33.45;;;21.85;;
23567;SDS011;11962;50.838;4.430;2023-04-29T08:40:04;30.52;;;20.70;;
23567;SDS011;11962;50.838;4.430;2023-04-29T08:42:34;34.90;;;20.95;;
23567;SDS011;11962;50.838;4.430;2023-04-29T08:45:01;33.20;;;21.17;;
23567;SDS011;11962;50.838;4.430;2023-04-29T08:47:31;30.25;;;19.77;;
23567;SDS011;11962;50.838;4.430;2023-04-29T08:50:02;28.95;;;19.92;;
23567;SDS011;11962;50.838;4.430;2023-04-29T08:52:32;29.92;;;19.90;;
23567;SDS011;11962;50.838;4.430;2023-04-29T08:54:58;28.15;;;19.30;;
23567;SDS011;11962;50.838;4.430;2023-04-29T08:57:27;31.35;;;18.77;;
23567;SDS011;11962;50.838;4.430;2023-04-29T08:59:54;29.77;;;19.95;;
23567;SDS011;11962;50.838;4.430;2023-04-29T09:02:20;26.33;;;17.98;;
23567;SDS011;11962;50.838;4.430;2023-04-29T09:04:54;32.03;;;19.42;;
23567;SDS011;11962;50.838;4.430;2023-04-29T09:07:33;30.80;;;18.48;;
23567;SDS011;11962;50.838;4.430;2023-04-29T09:10:00;31.92;;;19.00;;
23567;SDS011;11962;50.838;4.430;2023-04-29T09:12:28;31.90;;;19.02;;
23567;SDS011;11962;50.838;4.430;2023-04-29T09:14:54;29.20;;;19.67;;
23567;SDS011;11962;50.838;4.430;2023-04-29T09:17:43;31.10;;;19.88;;
23567;SDS011;11962;50.838;4.430;2023-04-29T09:23:01;27.35;;;18.77;;
23567;SDS011;11962;50.838;4.430;2023-04-29T09:25:28;31.92;;;20.05;;
23567;SDS011;11962;50.838;4.430;2023-04-29T09:27:55;30.27;;;19.50;;
23567;SDS011;11962;50.838;4.430;2023-04-29T09:30:21;32.00;;;19.25;;
23567;SDS011;11962;50.838;4.430;2023-04-29T09:33:06;28.45;;;18.48;;
23567;SDS011;11962;50.838;4.430;2023-04-29T09:35:33;30.05;;;18.77;;
23567;SDS011;11962;50.838;4.430;2023-04-29T09:38:09;27.65;;;18.92;;
23567;SDS011;11962;50.838;4.430;2023-04-29T09:40:40;26.23;;;18.33;;
23567;SDS011;11962;50.838;4.430;2023-04-29T09:43:11;28.13;;;19.42;;
23567;SDS011;11962;50.838;4.430;2023-04-29T09:45:43;30.05;;;18.75;;
23567;SDS011;11962;50.838;4.430;2023-04-29T09:48:10;34.38;;;19.20;;
23567;SDS011;11962;50.838;4.430;2023-04-29T09:50:37;25.70;;;18.85;;
23567;SDS011;11962;50.838;4.430;2023-04-29T09:53:04;34.53;;;19.15;;
23567;SDS011;11962;50.838;4.430;2023-04-29T09:55:36;28.08;;;18.80;;
23567;SDS011;11962;50.838;4.430;2023-04-29T09:58:26;33.53;;;18.42;;
23567;SDS011;11962;50.838;4.430;2023-04-29T10:00:55;31.83;;;18.80;;
23567;SDS011;11962;50.838;4.430;2023-04-29T10:03:25;29.27;;;18.30;;
23567;SDS011;11962;50.838;4.430;2023-04-29T10:05:56;26.75;;;18.30;;
23567;SDS011;11962;50.838;4.430;2023-04-29T10:08:24;26.08;;;17.63;;
23567;SDS011;11962;50.838;4.430;2023-04-29T10:10:51;24.25;;;16.73;;
23567;SDS011;11962;50.838;4.430;2023-04-29T10:13:24;28.52;;;17.65;;
23567;SDS011;11962;50.838;4.430;2023-04-29T10:15:55;22.98;;;16.75;;
23567;SDS011;11962;50.838;4.430;2023-04-29T10:18:36;19.63;;;15.93;;
23567;SDS011;11962;50.838;4.430;2023-04-29T10:21:07;22.02;;;15.43;;
23567;SDS011;11962;50.838;4.430;2023-04-29T10:23:33;26.15;;;15.45;;
23567;SDS011;11962;50.838;4.430;2023-04-29T10:26:01;21.57;;;15.83;;
23567;SDS011;11962;50.838;4.430;2023-04-29T10:28:29;27.08;;;16.13;;
23567;SDS011;11962;50.838;4.430;2023-04-29T10:30:57;24.48;;;14.98;;
23567;SDS011;11962;50.838;4.430;2023-04-29T10:33:31;22.35;;;15.63;;
23567;SDS011;11962;50.838;4.430;2023-04-29T10:35:58;23.90;;;15.68;;
23567;SDS011;11962;50.838;4.430;2023-04-29T10:38:27;24.02;;;14.75;;
23567;SDS011;11962;50.838;4.430;2023-04-29T10:41:21;21.10;;;14.38;;
23567;SDS011;11962;50.838;4.430;2023-04-29T10:43:54;23.27;;;14.98;;
23567;SDS011;11962;50.838;4.430;2023-04-29T10:48:55;21.55;;;14.93;;
23567;SDS011;11962;50.838;4.430;2023-04-29T10:51:32;19.50;;;13.65;;
23567;SDS011;11962;50.838;4.430;2023-04-29T10:54:00;25.98;;;15.70;;
23567;SDS011;11962;50.838;4.430;2023-04-29T10:56:43;24.80;;;15.27;;
23567;SDS011;11962;50.838;4.430;2023-04-29T10:59:13;23.15;;;15.18;;
23567;SDS011;11962;50.838;4.430;2023-04-29T11:01:45;23.88;;;13.63;;
23567;SDS011;11962;50.838;4.430;2023-04-29T11:04:15;17.73;;;13.73;;
23567;SDS011;11962;50.838;4.430;2023-04-29T11:06:52;22.57;;;13.93;;
23567;SDS011;11962;50.838;4.430;2023-04-29T11:14:42;22.25;;;14.65;;
23567;SDS011;11962;50.838;4.430;2023-04-29T11:17:14;24.25;;;14.82;;
23567;SDS011;11962;50.838;4.430;2023-04-29T11:27:18;20.60;;;14.75;;
23567;SDS011;11962;50.838;4.430;2023-04-29T11:29:45;23.23;;;15.10;;
23567;SDS011;11962;50.838;4.430;2023-04-29T11:32:13;19.25;;;14.15;;
23567;SDS011;11962;50.838;4.430;2023-04-29T11:34:39;21.02;;;14.55;;
23567;SDS011;11962;50.838;4.430;2023-04-29T11:37:05;17.63;;;12.90;;
23567;SDS011;11962;50.838;4.430;2023-04-29T11:39:34;17.42;;;12.52;;
23567;SDS011;11962;50.838;4.430;2023-04-29T11:42:03;17.85;;;12.35;;
23567;SDS011;11962;50.838;4.430;2023-04-29T11:44:32;15.85;;;11.43;;
23567;SDS011;11962;50.838;4.430;2023-04-29T11:47:06;18.23;;;13.10;;
23567;SDS011;11962;50.838;4.430;2023-04-29T11:49:32;14.57;;;11.20;;
23567;SDS011;11962;50.838;4.430;2023-04-29T11:51:58;17.50;;;11.40;;
23567;SDS011;11962;50.838;4.430;2023-04-29T11:54:25;16.67;;;11.65;;
23567;SDS011;11962;50.838;4.430;2023-04-29T11:56:52;15.93;;;11.85;;
23567;SDS011;11962;50.838;4.430;2023-04-29T11:59:19;14.73;;;11.40;;
23567;SDS011;11962;50.838;4.430;2023-04-29T12:01:46;14.43;;;10.77;;
23567;SDS011;11962;50.838;4.430;2023-04-29T12:04:13;14.55;;;11.38;;
23567;SDS011;11962;50.838;4.430;2023-04-29T12:06:38;15.60;;;11.57;;
23567;SDS011;11962;50.838;4.430;2023-04-29T12:09:05;15.20;;;11.00;;
23567;SDS011;11962;50.838;4.430;2023-04-29T12:11:32;14.77;;;10.65;;
23567;SDS011;11962;50.838;4.430;2023-04-29T12:13:59;12.60;;;9.45;;
23567;SDS011;11962;50.838;4.430;2023-04-29T12:16:27;11.77;;;7.57;;
23567;SDS011;11962;50.838;4.430;2023-04-29T12:18:54;11.98;;;8.15;;
23567;SDS011;11962;50.838;4.430;2023-04-29T12:21:21;13.90;;;9.30;;
23567;SDS011;11962;50.838;4.430;2023-04-29T12:23:47;11.02;;;8.60;;
23567;SDS011;11962;50.838;4.430;2023-04-29T12:26:13;10.57;;;8.80;;
23567;SDS011;11962;50.838;4.430;2023-04-29T12:28:39;11.13;;;9.07;;
23567;SDS011;11962;50.838;4.430;2023-04-29T12:31:08;13.82;;;9.73;;
23567;SDS011;11962;50.838;4.430;2023-04-29T12:33:36;15.82;;;11.23;;
23567;SDS011;11962;50.838;4.430;2023-04-29T12:36:02;14.65;;;10.68;;
23567;SDS011;11962;50.838;4.430;2023-04-29T12:38:29;14.15;;;10.18;;
23567;SDS011;11962;50.838;4.430;2023-04-29T12:40:57;13.30;;;9.82;;
23567;SDS011;11962;50.838;4.430;2023-04-29T12:43:28;13.68;;;10.18;;
23567;SDS011;11962;50.838;4.430;2023-04-29T12:46:01;18.55;;;10.13;;
23567;SDS011;11962;50.838;4.430;2023-04-29T12:48:34;11.45;;;9.40;;
23567;SDS011;11962;50.838;4.430;2023-04-29T12:51:03;12.82;;;9.93;;
23567;SDS011;11962;50.838;4.430;2023-04-29T12:53:29;12.77;;;10.10;;
23567;SDS011;11962;50.838;4.430;2023-04-29T12:55:55;15.48;;;11.23;;
23567;SDS011;11962;50.838;4.430;2023-04-29T12:58:21;11.45;;;9.48;;
23567;SDS011;11962;50.838;4.430;2023-04-29T13:00:48;15.18;;;10.15;;
23567;SDS011;11962;50.838;4.430;2023-04-29T13:03:14;13.52;;;9.30;;
23567;SDS011;11962;50.838;4.430;2023-04-29T13:05:40;12.85;;;9.30;;
23567;SDS011;11962;50.838;4.430;2023-04-29T13:08:06;13.52;;;9.68;;
23567;SDS011;11962;50.838;4.430;2023-04-29T13:10:32;12.38;;;9.90;;
23567;SDS011;11962;50.838;4.430;2023-04-29T13:12:59;12.35;;;9.10;;
23567;SDS011;11962;50.838;4.430;2023-04-29T13:15:25;12.43;;;9.18;;
23567;SDS011;11962;50.838;4.430;2023-04-29T13:17:52;12.00;;;8.88;;
23567;SDS011;11962;50.838;4.430;2023-04-29T13:20:18;12.15;;;8.70;;
23567;SDS011;11962;50.838;4.430;2023-04-29T13:22:44;11.63;;;8.80;;
23567;SDS011;11962;50.838;4.430;2023-04-29T13:25:10;13.77;;;9.23;;
23567;SDS011;11962;50.838;4.430;2023-04-29T13:27:39;11.75;;;9.38;;
23567;SDS011;11962;50.838;4.430;2023-04-29T13:30:05;12.75;;;9.07;;
23567;SDS011;11962;50.838;4.430;2023-04-29T13:32:31;12.73;;;9.38;;
23567;SDS011;11962;50.838;4.430;2023-04-29T13:34:57;11.18;;;8.38;;
23567;SDS011;11962;50.838;4.430;2023-04-29T13:37:23;11.52;;;8.30;;
23567;SDS011;11962;50.838;4.430;2023-04-29T13:39:48;11.15;;;8.48;;
23567;SDS011;11962;50.838;4.430;2023-04-29T13:42:14;10.38;;;8.10;;
23567;SDS011;11962;50.838;4.430;2023-04-29T13:44:40;11.80;;;8.48;;
23567;SDS011;11962;50.838;4.430;2023-04-29T13:47:09;12.75;;;8.15;;
23567;SDS011;11962;50.838;4.430;2023-04-29T13:49:37;12.57;;;8.57;;
23567;SDS011;11962;50.838;4.430;2023-04-29T13:52:03;12.23;;;8.70;;
23567;SDS011;11962;50.838;4.430;2023-04-29T13:54:29;9.45;;;8.15;;
23567;SDS011;11962;50.838;4.430;2023-04-29T13:56:55;11.55;;;8.05;;
23567;SDS011;11962;50.838;4.430;2023-04-29T13:59:21;12.63;;;8.88;;
23567;SDS011;11962;50.838;4.430;2023-04-29T14:01:47;9.45;;;7.65;;
23567;SDS011;11962;50.838;4.430;2023-04-29T14:04:15;12.98;;;8.60;;
23567;SDS011;11962;50.838;4.430;2023-04-29T14:06:44;9.88;;;8.10;;
23567;SDS011;11962;50.838;4.430;2023-04-29T14:09:10;12.35;;;7.95;;
23567;SDS011;11962;50.838;4.430;2023-04-29T14:11:36;11.32;;;8.00;;
23567;SDS011;11962;50.838;4.430;2023-04-29T14:14:02;11.10;;;9.00;;
23567;SDS011;11962;50.838;4.430;2023-04-29T14:16:28;14.63;;;9.57;;
23567;SDS011;11962;50.838;4.430;2023-04-29T14:18:57;12.40;;;9.32;;
23567;SDS011;11962;50.838;4.430;2023-04-29T14:21:26;11.15;;;9.13;;
23567;SDS011;11962;50.838;4.430;2023-04-29T14:23:52;13.30;;;8.98;;
23567;SDS011;11962;50.838;4.430;2023-04-29T14:26:17;12.25;;;9.32;;
23567;SDS011;11962;50.838;4.430;2023-04-29T14:28:43;14.32;;;9.80;;
23567;SDS011;11962;50.838;4.430;2023-04-29T14:31:09;15.30;;;9.80;;
23567;SDS011;11962;50.838;4.430;2023-04-29T14:33:37;18.33;;;9.52;;
23567;SDS011;11962;50.838;4.430;2023-04-29T14:36:05;11.98;;;9.20;;
23567;SDS011;11962;50.838;4.430;2023-04-29T14:38:31;16.23;;;9.20;;
23567;SDS011;11962;50.838;4.430;2023-04-29T14:40:57;11.23;;;8.82;;
23567;SDS011;11962;50.838;4.430;2023-04-29T14:43:23;13.93;;;9.85;;
23567;SDS011;11962;50.838;4.430;2023-04-29T14:45:49;11.52;;;9.02;;
23567;SDS011;11962;50.838;4.430;2023-04-29T14:48:17;16.33;;;9.15;;
23567;SDS011;11962;50.838;4.430;2023-04-29T14:50:43;13.00;;;9.32;;
23567;SDS011;11962;50.838;4.430;2023-04-29T14:53:09;12.13;;;8.80;;
23567;SDS011;11962;50.838;4.430;2023-04-29T14:55:36;11.55;;;9.07;;
23567;SDS011;11962;50.838;4.430;2023-04-29T14:58:02;13.32;;;9.40;;